Artesia, New Mexico
Current Conditions -  °F | °C
As of 3:51 PM on Saturday 22 Nov 2014 (Local Time) from KROW Reporting Station
Clear Clear  
Wind Chill: 21°   Ceiling: Unl
Heat Index: 21°   Visibility: 10mi
Dew Point: -6°   Wind: 17mph
Humidity: 16%   Direction: 300°WNW
Pressure: 29.8"   Gusts: 26mph
Location:  32.84°N, 104.39°W
Report Text: KROW 222251Z 30015G23KT 10SM CLR 21/M06 A2980 RMK AO2 SLP052 T02061061
Loading
Personal Weather Stations






























Interactive Weather Map New forecast layout! Learn more

10-Day Weather Forecast

Advertisements
Track Severe Weather on mobile